sensor_id;sensor_type;location;lat;lon;timestamp;pressure;altitude;pressure_sealevel;temperature;humidity
9784;BME280;4931;44.874;-1.092;2023-12-04T00:01:47;100649.63;;;6.07;100.00
9784;BME280;4931;44.874;-1.092;2023-12-04T00:04:12;100649.91;;;5.89;100.00
9784;BME280;4931;44.874;-1.092;2023-12-04T00:06:38;100666.59;;;6.14;100.00
9784;BME280;4931;44.874;-1.092;2023-12-04T00:09:04;100667.03;;;6.06;100.00
9784;BME280;4931;44.874;-1.092;2023-12-04T00:11:31;100654.91;;;5.97;100.00
9784;BME280;4931;44.874;-1.092;2023-12-04T00:13:58;100656.47;;;5.93;100.00
9784;BME280;4931;44.874;-1.092;2023-12-04T00:16:23;100661.84;;;6.05;100.00
9784;BME280;4931;44.874;-1.092;2023-12-04T00:18:49;100661.22;;;5.80;100.00
9784;BME280;4931;44.874;-1.092;2023-12-04T00:21:14;100657.78;;;6.07;100.00
9784;BME280;4931;44.874;-1.092;2023-12-04T00:23:40;100663.69;;;5.99;100.00
9784;BME280;4931;44.874;-1.092;2023-12-04T00:26:05;100651.09;;;6.15;100.00
9784;BME280;4931;44.874;-1.092;2023-12-04T00:28:31;100655.69;;;6.14;100.00
9784;BME280;4931;44.874;-1.092;2023-12-04T00:30:56;100645.97;;;6.19;100.00
9784;BME280;4931;44.874;-1.092;2023-12-04T00:33:22;100635.50;;;6.10;100.00
9784;BME280;4931;44.874;-1.092;2023-12-04T00:35:47;100638.22;;;6.10;100.00
9784;BME280;4931;44.874;-1.092;2023-12-04T00:38:13;100634.69;;;6.32;100.00
9784;BME280;4931;44.874;-1.092;2023-12-04T00:40:38;100620.47;;;6.30;100.00
9784;BME280;4931;44.874;-1.092;2023-12-04T00:43:04;100630.69;;;6.18;100.00
9784;BME280;4931;44.874;-1.092;2023-12-04T00:45:29;100612.13;;;6.14;100.00
9784;BME280;4931;44.874;-1.092;2023-12-04T00:47:55;100610.44;;;6.08;100.00
9784;BME280;4931;44.874;-1.092;2023-12-04T00:50:21;100607.19;;;6.11;100.00
9784;BME280;4931;44.874;-1.092;2023-12-04T00:52:46;100589.97;;;6.28;100.00
9784;BME280;4931;44.874;-1.092;2023-12-04T00:55:12;100584.38;;;6.18;100.00
9784;BME280;4931;44.874;-1.092;2023-12-04T00:57:37;100599.75;;;6.29;100.00
9784;BME280;4931;44.874;-1.092;2023-12-04T01:00:03;100589.50;;;6.36;100.00
9784;BME280;4931;44.874;-1.092;2023-12-04T01:02:29;100578.75;;;6.24;100.00
9784;BME280;4931;44.874;-1.092;2023-12-04T01:04:55;100582.19;;;6.42;100.00
9784;BME280;4931;44.874;-1.092;2023-12-04T01:07:20;100577.59;;;6.42;100.00
9784;BME280;4931;44.874;-1.092;2023-12-04T01:09:46;100562.09;;;6.48;100.00
9784;BME280;4931;44.874;-1.092;2023-12-04T01:12:11;100550.38;;;6.47;100.00
9784;BME280;4931;44.874;-1.092;2023-12-04T01:14:37;100550.88;;;6.44;100.00
9784;BME280;4931;44.874;-1.092;2023-12-04T01:17:03;100552.63;;;6.56;100.00
9784;BME280;4931;44.874;-1.092;2023-12-04T01:19:29;100531.25;;;6.42;100.00
9784;BME280;4931;44.874;-1.092;2023-12-04T01:21:54;100531.34;;;6.53;100.00
9784;BME280;4931;44.874;-1.092;2023-12-04T01:24:20;100528.00;;;6.45;100.00
9784;BME280;4931;44.874;-1.092;2023-12-04T01:26:46;100529.91;;;6.45;100.00
9784;BME280;4931;44.874;-1.092;2023-12-04T01:29:12;100531.44;;;6.63;100.00
9784;BME280;4931;44.874;-1.092;2023-12-04T01:31:37;100527.63;;;6.64;100.00
9784;BME280;4931;44.874;-1.092;2023-12-04T01:34:03;100525.91;;;6.53;100.00
9784;BME280;4931;44.874;-1.092;2023-12-04T01:36:28;100520.53;;;6.63;100.00
9784;BME280;4931;44.874;-1.092;2023-12-04T01:38:53;100505.81;;;6.64;100.00
9784;BME280;4931;44.874;-1.092;2023-12-04T01:41:19;100517.25;;;6.61;100.00
9784;BME280;4931;44.874;-1.092;2023-12-04T01:43:45;100520.84;;;6.67;100.00
9784;BME280;4931;44.874;-1.092;2023-12-04T01:46:11;100506.44;;;6.71;100.00
9784;BME280;4931;44.874;-1.092;2023-12-04T01:48:37;100499.81;;;6.62;100.00
9784;BME280;4931;44.874;-1.092;2023-12-04T01:51:05;100493.97;;;6.48;100.00
9784;BME280;4931;44.874;-1.092;2023-12-04T01:53:32;100496.56;;;6.65;100.00
9784;BME280;4931;44.874;-1.092;2023-12-04T01:55:58;100496.84;;;6.63;100.00
9784;BME280;4931;44.874;-1.092;2023-12-04T01:58:24;100491.66;;;6.62;100.00
9784;BME280;4931;44.874;-1.092;2023-12-04T02:00:49;100506.94;;;6.68;100.00
9784;BME280;4931;44.874;-1.092;2023-12-04T02:03:15;100496.09;;;6.73;100.00
9784;BME280;4931;44.874;-1.092;2023-12-04T02:05:44;100499.06;;;6.72;100.00
9784;BME280;4931;44.874;-1.092;2023-12-04T02:08:10;100493.66;;;6.77;100.00
9784;BME280;4931;44.874;-1.092;2023-12-04T02:10:36;100490.91;;;6.72;100.00
9784;BME280;4931;44.874;-1.092;2023-12-04T02:13:02;100496.13;;;6.78;100.00
9784;BME280;4931;44.874;-1.092;2023-12-04T02:15:27;100509.88;;;6.94;100.00
9784;BME280;4931;44.874;-1.092;2023-12-04T02:17:53;100491.28;;;6.86;100.00
9784;BME280;4931;44.874;-1.092;2023-12-04T02:20:19;100494.56;;;6.88;100.00
9784;BME280;4931;44.874;-1.092;2023-12-04T02:22:45;100487.53;;;6.97;100.00
9784;BME280;4931;44.874;-1.092;2023-12-04T02:25:11;100490.53;;;6.95;100.00
9784;BME280;4931;44.874;-1.092;2023-12-04T02:27:52;100488.13;;;7.04;100.00
9784;BME280;4931;44.874;-1.092;2023-12-04T02:30:21;100481.59;;;7.10;100.00
9784;BME280;4931;44.874;-1.092;2023-12-04T02:32:48;100493.13;;;7.18;100.00
9784;BME280;4931;44.874;-1.092;2023-12-04T02:35:16;100490.31;;;7.07;100.00
9784;BME280;4931;44.874;-1.092;2023-12-04T02:37:42;100469.06;;;7.09;100.00
9784;BME280;4931;44.874;-1.092;2023-12-04T02:40:08;100475.72;;;7.24;100.00
9784;BME280;4931;44.874;-1.092;2023-12-04T02:42:34;100482.56;;;7.31;100.00
9784;BME280;4931;44.874;-1.092;2023-12-04T02:44:59;100474.00;;;7.12;100.00
9784;BME280;4931;44.874;-1.092;2023-12-04T02:47:24;100486.31;;;7.20;100.00
9784;BME280;4931;44.874;-1.092;2023-12-04T02:49:50;100481.41;;;7.17;100.00
9784;BME280;4931;44.874;-1.092;2023-12-04T02:52:16;100487.63;;;7.12;100.00
9784;BME280;4931;44.874;-1.092;2023-12-04T02:54:41;100481.13;;;7.19;100.00
9784;BME280;4931;44.874;-1.092;2023-12-04T02:57:07;100480.50;;;7.06;100.00
9784;BME280;4931;44.874;-1.092;2023-12-04T02:59:32;100476.81;;;7.28;100.00
9784;BME280;4931;44.874;-1.092;2023-12-04T03:01:58;100457.16;;;7.26;100.00
9784;BME280;4931;44.874;-1.092;2023-12-04T03:04:24;100464.81;;;7.29;100.00
9784;BME280;4931;44.874;-1.092;2023-12-04T03:06:49;100456.63;;;7.29;100.00
9784;BME280;4931;44.874;-1.092;2023-12-04T03:09:15;100471.38;;;7.33;100.00
9784;BME280;4931;44.874;-1.092;2023-12-04T03:11:40;100459.66;;;7.38;100.00
9784;BME280;4931;44.874;-1.092;2023-12-04T03:14:06;100463.78;;;7.40;100.00
9784;BME280;4931;44.874;-1.092;2023-12-04T03:16:32;100449.53;;;7.28;100.00
9784;BME280;4931;44.874;-1.092;2023-12-04T03:18:58;100443.03;;;7.44;100.00
9784;BME280;4931;44.874;-1.092;2023-12-04T03:21:23;100453.97;;;7.50;100.00
9784;BME280;4931;44.874;-1.092;2023-12-04T03:23:49;100427.19;;;7.36;100.00
9784;BME280;4931;44.874;-1.092;2023-12-04T03:26:14;100438.94;;;7.42;100.00
9784;BME280;4931;44.874;-1.092;2023-12-04T03:28:40;100434.25;;;7.32;100.00
9784;BME280;4931;44.874;-1.092;2023-12-04T03:31:06;100425.75;;;7.23;100.00
9784;BME280;4931;44.874;-1.092;2023-12-04T03:33:31;100420.66;;;7.37;100.00
9784;BME280;4931;44.874;-1.092;2023-12-04T03:35:58;100421.97;;;7.29;100.00
9784;BME280;4931;44.874;-1.092;2023-12-04T03:38:24;100420.94;;;7.41;100.00
9784;BME280;4931;44.874;-1.092;2023-12-04T03:40:49;100418.44;;;7.29;100.00
9784;BME280;4931;44.874;-1.092;2023-12-04T03:43:14;100417.78;;;7.11;100.00
9784;BME280;4931;44.874;-1.092;2023-12-04T03:45:40;100423.22;;;7.06;100.00
9784;BME280;4931;44.874;-1.092;2023-12-04T03:48:05;100415.56;;;7.03;100.00
9784;BME280;4931;44.874;-1.092;2023-12-04T03:50:31;100410.66;;;7.00;100.00
9784;BME280;4931;44.874;-1.092;2023-12-04T03:52:56;100413.34;;;6.95;100.00
9784;BME280;4931;44.874;-1.092;2023-12-04T03:55:22;100414.28;;;6.73;100.00
9784;BME280;4931;44.874;-1.092;2023-12-04T03:57:47;100414.78;;;6.65;100.00
9784;BME280;4931;44.874;-1.092;2023-12-04T04:00:13;100413.97;;;6.64;100.00
9784;BME280;4931;44.874;-1.092;2023-12-04T04:02:39;100415.59;;;6.65;100.00
9784;BME280;4931;44.874;-1.092;2023-12-04T04:05:05;100401.72;;;6.67;100.00
9784;BME280;4931;44.874;-1.092;2023-12-04T04:07:31;100391.50;;;6.47;100.00
9784;BME280;4931;44.874;-1.092;2023-12-04T04:09:57;100408.22;;;6.61;100.00
9784;BME280;4931;44.874;-1.092;2023-12-04T04:12:22;100378.50;;;6.59;100.00
9784;BME280;4931;44.874;-1.092;2023-12-04T04:14:48;100368.41;;;6.60;100.00
9784;BME280;4931;44.874;-1.092;2023-12-04T04:17:13;100364.88;;;6.59;100.00
9784;BME280;4931;44.874;-1.092;2023-12-04T04:19:38;100380.91;;;6.51;100.00
9784;BME280;4931;44.874;-1.092;2023-12-04T04:22:04;100372.81;;;6.66;100.00
9784;BME280;4931;44.874;-1.092;2023-12-04T04:24:29;100376.56;;;6.55;100.00
9784;BME280;4931;44.874;-1.092;2023-12-04T04:26:55;100374.72;;;6.65;100.00
9784;BME280;4931;44.874;-1.092;2023-12-04T04:29:20;100371.72;;;6.62;100.00
9784;BME280;4931;44.874;-1.092;2023-12-04T04:31:46;100371.25;;;6.75;100.00
9784;BME280;4931;44.874;-1.092;2023-12-04T04:34:11;100378.63;;;6.80;100.00
9784;BME280;4931;44.874;-1.092;2023-12-04T04:36:36;100371.47;;;6.69;100.00
9784;BME280;4931;44.874;-1.092;2023-12-04T04:39:02;100374.44;;;6.67;100.00
9784;BME280;4931;44.874;-1.092;2023-12-04T04:41:28;100378.84;;;6.73;100.00
9784;BME280;4931;44.874;-1.092;2023-12-04T04:43:53;100377.44;;;6.65;100.00
9784;BME280;4931;44.874;-1.092;2023-12-04T04:46:19;100359.97;;;6.61;100.00
9784;BME280;4931;44.874;-1.092;2023-12-04T04:48:44;100359.22;;;6.71;100.00
9784;BME280;4931;44.874;-1.092;2023-12-04T04:51:10;100359.19;;;6.66;100.00
9784;BME280;4931;44.874;-1.092;2023-12-04T04:53:35;100372.28;;;6.69;100.00
9784;BME280;4931;44.874;-1.092;2023-12-04T04:56:01;100369.59;;;6.74;100.00
9784;BME280;4931;44.874;-1.092;2023-12-04T04:58:26;100373.94;;;6.70;100.00
9784;BME280;4931;44.874;-1.092;2023-12-04T05:00:51;100366.25;;;6.62;100.00
9784;BME280;4931;44.874;-1.092;2023-12-04T05:03:17;100374.25;;;6.74;100.00
9784;BME280;4931;44.874;-1.092;2023-12-04T05:05:42;100362.19;;;6.70;100.00
9784;BME280;4931;44.874;-1.092;2023-12-04T05:08:08;100353.81;;;6.81;100.00
9784;BME280;4931;44.874;-1.092;2023-12-04T05:10:33;100351.41;;;6.90;100.00
9784;BME280;4931;44.874;-1.092;2023-12-04T05:12:59;100353.34;;;6.90;100.00
9784;BME280;4931;44.874;-1.092;2023-12-04T05:15:24;100353.81;;;6.81;100.00
9784;BME280;4931;44.874;-1.092;2023-12-04T05:17:51;100357.69;;;6.96;100.00
9784;BME280;4931;44.874;-1.092;2023-12-04T05:20:16;100339.13;;;6.88;100.00
9784;BME280;4931;44.874;-1.092;2023-12-04T05:22:42;100343.25;;;6.95;100.00
9784;BME280;4931;44.874;-1.092;2023-12-04T05:25:07;100328.19;;;6.82;100.00
9784;BME280;4931;44.874;-1.092;2023-12-04T05:27:33;100321.38;;;6.85;100.00
9784;BME280;4931;44.874;-1.092;2023-12-04T05:29:58;100339.44;;;6.91;100.00
9784;BME280;4931;44.874;-1.092;2023-12-04T05:32:24;100335.94;;;7.06;100.00
9784;BME280;4931;44.874;-1.092;2023-12-04T05:34:49;100343.31;;;7.06;100.00
9784;BME280;4931;44.874;-1.092;2023-12-04T05:37:15;100357.78;;;7.11;100.00
9784;BME280;4931;44.874;-1.092;2023-12-04T05:39:41;100348.19;;;7.04;100.00
9784;BME280;4931;44.874;-1.092;2023-12-04T05:42:07;100353.97;;;7.12;100.00
9784;BME280;4931;44.874;-1.092;2023-12-04T05:44:33;100343.88;;;7.08;100.00
9784;BME280;4931;44.874;-1.092;2023-12-04T05:46:58;100346.88;;;7.11;100.00
9784;BME280;4931;44.874;-1.092;2023-12-04T05:49:24;100339.75;;;7.00;100.00
9784;BME280;4931;44.874;-1.092;2023-12-04T05:51:49;100344.38;;;7.00;100.00
9784;BME280;4931;44.874;-1.092;2023-12-04T05:54:15;100339.22;;;7.03;100.00
9784;BME280;4931;44.874;-1.092;2023-12-04T05:56:40;100337.56;;;7.02;100.00
9784;BME280;4931;44.874;-1.092;2023-12-04T05:59:06;100333.75;;;7.03;100.00
9784;BME280;4931;44.874;-1.092;2023-12-04T06:01:31;100334.31;;;7.05;100.00
9784;BME280;4931;44.874;-1.092;2023-12-04T06:03:56;100333.81;;;7.19;100.00
9784;BME280;4931;44.874;-1.092;2023-12-04T06:06:22;100332.34;;;6.95;100.00
9784;BME280;4931;44.874;-1.092;2023-12-04T06:08:48;100324.50;;;7.09;100.00
9784;BME280;4931;44.874;-1.092;2023-12-04T06:11:13;100314.38;;;7.05;100.00
9784;BME280;4931;44.874;-1.092;2023-12-04T06:13:39;100296.94;;;7.06;100.00
9784;BME280;4931;44.874;-1.092;2023-12-04T06:16:05;100295.03;;;7.11;100.00
9784;BME280;4931;44.874;-1.092;2023-12-04T06:18:30;100305.88;;;6.86;100.00
9784;BME280;4931;44.874;-1.092;2023-12-04T06:20:56;100300.19;;;6.97;100.00
9784;BME280;4931;44.874;-1.092;2023-12-04T06:23:21;100305.38;;;6.99;100.00
9784;BME280;4931;44.874;-1.092;2023-12-04T06:25:47;100291.44;;;6.90;100.00
9784;BME280;4931;44.874;-1.092;2023-12-04T06:28:13;100279.41;;;6.86;100.00
9784;BME280;4931;44.874;-1.092;2023-12-04T06:30:39;100273.72;;;6.93;100.00
9784;BME280;4931;44.874;-1.092;2023-12-04T06:33:05;100287.94;;;7.05;100.00
9784;BME280;4931;44.874;-1.092;2023-12-04T06:35:30;100280.84;;;7.04;100.00
9784;BME280;4931;44.874;-1.092;2023-12-04T06:38:01;100286.06;;;7.16;100.00
9784;BME280;4931;44.874;-1.092;2023-12-04T06:40:30;100257.41;;;7.13;100.00
9784;BME280;4931;44.874;-1.092;2023-12-04T06:42:57;100268.94;;;7.41;100.00
9784;BME280;4931;44.874;-1.092;2023-12-04T06:45:23;100267.84;;;7.37;100.00
9784;BME280;4931;44.874;-1.092;2023-12-04T06:47:50;100274.41;;;7.52;100.00
9784;BME280;4931;44.874;-1.092;2023-12-04T06:50:15;100258.81;;;7.42;100.00
9784;BME280;4931;44.874;-1.092;2023-12-04T06:52:41;100274.94;;;7.64;100.00
9784;BME280;4931;44.874;-1.092;2023-12-04T06:55:07;100256.94;;;7.68;100.00
9784;BME280;4931;44.874;-1.092;2023-12-04T06:57:33;100264.59;;;7.76;100.00
9784;BME280;4931;44.874;-1.092;2023-12-04T06:59:59;100263.47;;;7.88;100.00
9784;BME280;4931;44.874;-1.092;2023-12-04T07:02:24;100257.78;;;7.89;100.00
9784;BME280;4931;44.874;-1.092;2023-12-04T07:04:49;100268.38;;;8.06;100.00
9784;BME280;4931;44.874;-1.092;2023-12-04T07:07:15;100272.19;;;8.21;100.00
9784;BME280;4931;44.874;-1.092;2023-12-04T07:09:41;100267.25;;;8.33;100.00
9784;BME280;4931;44.874;-1.092;2023-12-04T07:12:06;100272.72;;;8.43;100.00
9784;BME280;4931;44.874;-1.092;2023-12-04T07:14:32;100277.63;;;8.57;100.00
9784;BME280;4931;44.874;-1.092;2023-12-04T07:16:58;100262.88;;;8.47;100.00
9784;BME280;4931;44.874;-1.092;2023-12-04T07:19:25;100259.53;;;8.66;100.00
9784;BME280;4931;44.874;-1.092;2023-12-04T07:21:52;100264.44;;;8.69;100.00
9784;BME280;4931;44.874;-1.092;2023-12-04T07:24:17;100266.59;;;8.77;100.00
9784;BME280;4931;44.874;-1.092;2023-12-04T07:26:43;100265.47;;;8.84;100.00
9784;BME280;4931;44.874;-1.092;2023-12-04T07:29:08;100257.53;;;8.87;100.00
9784;BME280;4931;44.874;-1.092;2023-12-04T07:31:34;100273.59;;;9.04;100.00
9784;BME280;4931;44.874;-1.092;2023-12-04T07:33:59;100271.66;;;9.05;100.00
9784;BME280;4931;44.874;-1.092;2023-12-04T07:36:27;100261.44;;;9.26;100.00
9784;BME280;4931;44.874;-1.092;2023-12-04T07:38:53;100268.78;;;9.30;100.00
9784;BME280;4931;44.874;-1.092;2023-12-04T07:41:19;100291.22;;;9.38;100.00
9784;BME280;4931;44.874;-1.092;2023-12-04T07:43:45;100284.09;;;9.37;100.00
9784;BME280;4931;44.874;-1.092;2023-12-04T07:46:10;100283.50;;;9.40;100.00
9784;BME280;4931;44.874;-1.092;2023-12-04T07:48:37;100305.47;;;9.29;100.00
9784;BME280;4931;44.874;-1.092;2023-12-04T07:51:03;100302.53;;;9.66;100.00
9784;BME280;4931;44.874;-1.092;2023-12-04T07:53:28;100343.72;;;9.45;100.00
9784;BME280;4931;44.874;-1.092;2023-12-04T07:55:54;100335.25;;;9.41;100.00
9784;BME280;4931;44.874;-1.092;2023-12-04T07:58:19;100311.81;;;9.20;100.00
9784;BME280;4931;44.874;-1.092;2023-12-04T08:00:45;100316.19;;;9.26;100.00
9784;BME280;4931;44.874;-1.092;2023-12-04T08:03:10;100296.25;;;9.60;100.00
9784;BME280;4931;44.874;-1.092;2023-12-04T08:05:36;100315.09;;;9.72;100.00
9784;BME280;4931;44.874;-1.092;2023-12-04T08:08:02;100310.31;;;9.88;100.00
9784;BME280;4931;44.874;-1.092;2023-12-04T08:10:27;100316.25;;;9.95;100.00
9784;BME280;4931;44.874;-1.092;2023-12-04T08:12:52;100302.25;;;9.96;100.00
9784;BME280;4931;44.874;-1.092;2023-12-04T08:15:18;100301.47;;;9.96;100.00
9784;BME280;4931;44.874;-1.092;2023-12-04T08:17:43;100296.53;;;9.98;100.00
9784;BME280;4931;44.874;-1.092;2023-12-04T08:20:09;100286.84;;;10.06;100.00
9784;BME280;4931;44.874;-1.092;2023-12-04T08:22:42;100284.44;;;9.99;100.00
9784;BME280;4931;44.874;-1.092;2023-12-04T08:25:10;100313.72;;;10.04;100.00
9784;BME280;4931;44.874;-1.092;2023-12-04T08:27:36;100330.53;;;9.92;100.00
9784;BME280;4931;44.874;-1.092;2023-12-04T08:30:03;100341.88;;;10.14;100.00
9784;BME280;4931;44.874;-1.092;2023-12-04T08:32:29;100310.69;;;10.05;100.00
9784;BME280;4931;44.874;-1.092;2023-12-04T08:34:55;100311.72;;;10.14;100.00
9784;BME280;4931;44.874;-1.092;2023-12-04T08:37:20;100331.06;;;10.28;100.00
9784;BME280;4931;44.874;-1.092;2023-12-04T08:39:46;100309.28;;;10.42;100.00
9784;BME280;4931;44.874;-1.092;2023-12-04T08:42:12;100299.16;;;10.43;100.00
9784;BME280;4931;44.874;-1.092;2023-12-04T08:44:37;100321.19;;;10.57;100.00
9784;BME280;4931;44.874;-1.092;2023-12-04T08:47:03;100326.69;;;10.57;100.00
9784;BME280;4931;44.874;-1.092;2023-12-04T08:49:29;100324.47;;;10.59;100.00
9784;BME280;4931;44.874;-1.092;2023-12-04T08:51:54;100328.72;;;10.70;100.00
9784;BME280;4931;44.874;-1.092;2023-12-04T08:54:20;100331.38;;;10.80;100.00
9784;BME280;4931;44.874;-1.092;2023-12-04T08:56:45;100328.91;;;10.79;100.00
9784;BME280;4931;44.874;-1.092;2023-12-04T08:59:11;100327.41;;;10.92;100.00
9784;BME280;4931;44.874;-1.092;2023-12-04T09:01:38;100311.75;;;10.92;100.00
9784;BME280;4931;44.874;-1.092;2023-12-04T09:04:03;100334.22;;;10.94;100.00
9784;BME280;4931;44.874;-1.092;2023-12-04T09:06:29;100338.72;;;11.09;100.00
9784;BME280;4931;44.874;-1.092;2023-12-04T09:08:54;100332.53;;;10.99;100.00
9784;BME280;4931;44.874;-1.092;2023-12-04T09:11:20;100321.66;;;11.12;100.00
9784;BME280;4931;44.874;-1.092;2023-12-04T09:13:45;100327.72;;;11.09;100.00
9784;BME280;4931;44.874;-1.092;2023-12-04T09:16:11;100311.31;;;11.04;100.00
9784;BME280;4931;44.874;-1.092;2023-12-04T09:18:36;100327.16;;;11.12;100.00
9784;BME280;4931;44.874;-1.092;2023-12-04T09:21:02;100310.47;;;11.09;100.00
9784;BME280;4931;44.874;-1.092;2023-12-04T09:23:27;100312.16;;;11.24;100.00
9784;BME280;4931;44.874;-1.092;2023-12-04T09:25:53;100306.31;;;11.30;100.00
9784;BME280;4931;44.874;-1.092;2023-12-04T09:28:18;100294.75;;;11.34;100.00
9784;BME280;4931;44.874;-1.092;2023-12-04T09:30:44;100298.69;;;11.46;100.00
9784;BME280;4931;44.874;-1.092;2023-12-04T09:33:10;100280.50;;;11.51;100.00
9784;BME280;4931;44.874;-1.092;2023-12-04T09:35:35;100294.75;;;11.72;100.00
9784;BME280;4931;44.874;-1.092;2023-12-04T09:38:01;100272.28;;;11.84;100.00
9784;BME280;4931;44.874;-1.092;2023-12-04T09:40:27;100285.13;;;12.07;100.00
9784;BME280;4931;44.874;-1.092;2023-12-04T09:42:52;100294.88;;;12.00;100.00
9784;BME280;4931;44.874;-1.092;2023-12-04T09:45:19;100290.66;;;11.69;100.00
9784;BME280;4931;44.874;-1.092;2023-12-04T09:47:48;100298.44;;;11.62;100.00
9784;BME280;4931;44.874;-1.092;2023-12-04T09:50:16;100319.47;;;11.53;100.00
9784;BME280;4931;44.874;-1.092;2023-12-04T09:52:48;100298.97;;;11.45;100.00
9784;BME280;4931;44.874;-1.092;2023-12-04T09:55:15;100319.03;;;11.45;100.00
9784;BME280;4931;44.874;-1.092;2023-12-04T09:57:41;100327.63;;;11.58;100.00
9784;BME280;4931;44.874;-1.092;2023-12-04T10:00:09;100312.13;;;11.48;100.00
9784;BME280;4931;44.874;-1.092;2023-12-04T10:02:36;100327.50;;;11.49;100.00
9784;BME280;4931;44.874;-1.092;2023-12-04T10:05:02;100316.72;;;11.72;100.00
9784;BME280;4931;44.874;-1.092;2023-12-04T10:07:31;100330.16;;;11.73;100.00
9784;BME280;4931;44.874;-1.092;2023-12-04T10:09:56;100331.19;;;11.77;100.00
9784;BME280;4931;44.874;-1.092;2023-12-04T10:12:22;100369.81;;;11.67;100.00
9784;BME280;4931;44.874;-1.092;2023-12-04T10:15:05;100340.03;;;11.55;100.00
9784;BME280;4931;44.874;-1.092;2023-12-04T10:17:40;100364.00;;;11.50;100.00
9784;BME280;4931;44.874;-1.092;2023-12-04T10:22:52;100360.19;;;11.26;100.00
9784;BME280;4931;44.874;-1.092;2023-12-04T10:25:20;100367.69;;;11.21;100.00
9784;BME280;4931;44.874;-1.092;2023-12-04T10:27:46;100362.44;;;11.00;100.00
9784;BME280;4931;44.874;-1.092;2023-12-04T10:30:42;100349.25;;;11.02;100.00
9784;BME280;4931;44.874;-1.092;2023-12-04T10:33:08;100352.50;;;11.04;100.00
9784;BME280;4931;44.874;-1.092;2023-12-04T10:35:37;100349.19;;;11.07;100.00
9784;BME280;4931;44.874;-1.092;2023-12-04T10:38:03;100342.50;;;11.13;100.00
9784;BME280;4931;44.874;-1.092;2023-12-04T10:40:30;100325.53;;;11.11;100.00
9784;BME280;4931;44.874;-1.092;2023-12-04T10:43:18;100336.25;;;11.32;100.00
9784;BME280;4931;44.874;-1.092;2023-12-04T10:45:46;100344.91;;;11.39;100.00
9784;BME280;4931;44.874;-1.092;2023-12-04T10:48:13;100352.97;;;11.55;100.00
9784;BME280;4931;44.874;-1.092;2023-12-04T10:50:41;100339.81;;;11.52;100.00
9784;BME280;4931;44.874;-1.092;2023-12-04T10:53:08;100334.34;;;11.52;100.00
9784;BME280;4931;44.874;-1.092;2023-12-04T10:55:34;100338.53;;;11.63;100.00
9784;BME280;4931;44.874;-1.092;2023-12-04T10:58:08;100344.44;;;11.75;100.00
9784;BME280;4931;44.874;-1.092;2023-12-04T11:00:38;100326.16;;;11.85;100.00
9784;BME280;4931;44.874;-1.092;2023-12-04T11:03:08;100333.13;;;11.96;100.00
9784;BME280;4931;44.874;-1.092;2023-12-04T11:05:38;100326.94;;;11.85;100.00
9784;BME280;4931;44.874;-1.092;2023-12-04T11:08:16;100336.66;;;12.16;100.00
9784;BME280;4931;44.874;-1.092;2023-12-04T11:10:49;100336.66;;;12.16;100.00
9784;BME280;4931;44.874;-1.092;2023-12-04T11:13:45;100352.78;;;12.22;100.00
9784;BME280;4931;44.874;-1.092;2023-12-04T11:16:41;100350.03;;;12.22;100.00
9784;BME280;4931;44.874;-1.092;2023-12-04T11:20:16;100332.56;;;12.46;100.00
9784;BME280;4931;44.874;-1.092;2023-12-04T11:22:09;100332.31;;;12.75;100.00
9784;BME280;4931;44.874;-1.092;2023-12-04T11:24:35;100320.06;;;12.95;100.00
9784;BME280;4931;44.874;-1.092;2023-12-04T11:27:01;100325.63;;;13.18;100.00
9784;BME280;4931;44.874;-1.092;2023-12-04T11:29:29;100320.84;;;13.38;100.00
9784;BME280;4931;44.874;-1.092;2023-12-04T11:31:55;100312.06;;;13.22;100.00
9784;BME280;4931;44.874;-1.092;2023-12-04T11:34:20;100315.16;;;13.20;100.00
9784;BME280;4931;44.874;-1.092;2023-12-04T11:36:46;100312.28;;;13.25;100.00
9784;BME280;4931;44.874;-1.092;2023-12-04T11:39:11;100317.38;;;13.32;100.00
9784;BME280;4931;44.874;-1.092;2023-12-04T11:41:37;100312.72;;;13.19;100.00
9784;BME280;4931;44.874;-1.092;2023-12-04T11:44:03;100318.81;;;13.16;100.00
9784;BME280;4931;44.874;-1.092;2023-12-04T11:46:29;100345.53;;;13.15;100.00
9784;BME280;4931;44.874;-1.092;2023-12-04T11:49:27;100353.50;;;13.17;100.00
9784;BME280;4931;44.874;-1.092;2023-12-04T11:52:05;100342.28;;;12.85;100.00
9784;BME280;4931;44.874;-1.092;2023-12-04T11:54:58;100351.66;;;12.70;100.00
9784;BME280;4931;44.874;-1.092;2023-12-04T11:57:35;100356.31;;;12.56;100.00
9784;BME280;4931;44.874;-1.092;2023-12-04T12:05:22;100351.88;;;13.43;100.00
9784;BME280;4931;44.874;-1.092;2023-12-04T12:07:49;100355.13;;;13.45;100.00
9784;BME280;4931;44.874;-1.092;2023-12-04T12:10:18;100341.84;;;12.64;100.00
9784;BME280;4931;44.874;-1.092;2023-12-04T12:12:44;100348.09;;;12.23;100.00
9784;BME280;4931;44.874;-1.092;2023-12-04T12:15:10;100354.34;;;12.09;100.00
9784;BME280;4931;44.874;-1.092;2023-12-04T12:17:40;100339.19;;;11.93;100.00
9784;BME280;4931;44.874;-1.092;2023-12-04T12:20:10;100354.97;;;12.06;100.00
9784;BME280;4931;44.874;-1.092;2023-12-04T12:22:37;100342.94;;;12.02;100.00
9784;BME280;4931;44.874;-1.092;2023-12-04T12:25:13;100339.72;;;11.95;100.00
9784;BME280;4931;44.874;-1.092;2023-12-04T12:27:39;100357.28;;;11.99;100.00
9784;BME280;4931;44.874;-1.092;2023-12-04T12:30:05;100367.66;;;11.83;100.00
9784;BME280;4931;44.874;-1.092;2023-12-04T12:32:32;100380.50;;;11.88;100.00
9784;BME280;4931;44.874;-1.092;2023-12-04T12:34:58;100388.69;;;11.93;100.00
9784;BME280;4931;44.874;-1.092;2023-12-04T12:37:24;100373.34;;;12.25;100.00
9784;BME280;4931;44.874;-1.092;2023-12-04T12:39:49;100378.75;;;12.63;100.00
9784;BME280;4931;44.874;-1.092;2023-12-04T12:42:26;100377.97;;;12.76;100.00
9784;BME280;4931;44.874;-1.092;2023-12-04T12:44:52;100384.50;;;12.81;100.00
9784;BME280;4931;44.874;-1.092;2023-12-04T12:47:18;100376.94;;;12.86;100.00
9784;BME280;4931;44.874;-1.092;2023-12-04T12:49:44;100387.56;;;12.93;100.00
9784;BME280;4931;44.874;-1.092;2023-12-04T12:52:10;100374.50;;;12.85;100.00
9784;BME280;4931;44.874;-1.092;2023-12-04T12:54:45;100393.66;;;12.76;100.00
9784;BME280;4931;44.874;-1.092;2023-12-04T12:57:11;100394.63;;;12.52;100.00
9784;BME280;4931;44.874;-1.092;2023-12-04T12:59:40;100387.88;;;12.44;100.00
9784;BME280;4931;44.874;-1.092;2023-12-04T13:02:06;100404.38;;;12.44;100.00
9784;BME280;4931;44.874;-1.092;2023-12-04T13:07:01;100407.34;;;12.95;100.00